Terminal Aerodrome Forecast
Issued by NWS

Home | Current Version | Previous Version | Text Only | Print | Product List | Glossary On
Versions: 1 2 3 4 5 6 7 8 9 10 11 12 13 14 15 16 17 18 19 20 21 22 23 24
000
FTAK31 PANC 171743
TAFAHO
TAF
PAHO 171743Z 1718/1818 16008KT P6SM -SHRA SCT025 OVC040
     FM180400 21004KT P6SM SCT008 BKN018=

USA.gov is the U.S. government's official web portal to all federal, state and local government web resources and services.